Time;durP1;ratioP1;P1;durP2;ratioP2;P2;SDS_P1;SDS_P2;PMS_P1;PMS_P2;Temp;Humidity;BMP_temperature;BMP_pressure;BME280_temperature;BME280_humidity;BME280_pressure;Samples;Min_cycle;Max_cycle;Signal;HPM_P1;HPM_P2
2022/04/20 00:00:59;;;;;;;8.77;3.90;;;4.90;97.30;;;;;;5127389;27;20166;-76
2022/04/20 00:03:24;;;;;;;5.27;3.67;;;4.90;97.30;;;;;;5126160;27;20165;-77
2022/04/20 00:05:50;;;;;;;20.90;5.40;;;4.80;97.30;;;;;;5127136;27;20193;-76
2022/04/20 00:08:15;;;;;;;6.10;3.80;;;4.80;97.30;;;;;;5125742;27;20232;-78
2022/04/20 00:10:41;;;;;;;8.73;4.03;;;4.80;97.30;;;;;;5127607;27;20180;-76
2022/04/20 00:13:06;;;;;;;5.67;4.00;;;4.70;97.30;;;;;;5125898;28;20326;-76
2022/04/20 00:15:32;;;;;;;7.97;4.47;;;4.70;97.30;;;;;;5126145;27;20686;-77
2022/04/20 00:17:57;;;;;;;15.50;4.63;;;4.60;97.30;;;;;;5125760;28;20639;-77
2022/04/20 00:20:23;;;;;;;9.07;4.50;;;4.60;97.30;;;;;;5116974;27;20170;-77
2022/04/20 00:22:48;;;;;;;8.10;5.03;;;4.60;97.30;;;;;;5111835;28;20169;-76
2022/04/20 00:25:14;;;;;;;5.83;3.57;;;4.60;97.30;;;;;;5111715;28;20347;-77
2022/04/20 00:27:39;;;;;;;7.37;4.33;;;4.50;97.30;;;;;;5111811;28;20206;-76
2022/04/20 00:30:08;;;;;;;8.70;4.50;;;4.50;97.30;;;;;;5111602;28;20197;-76
2022/04/20 00:32:34;;;;;;;5.83;3.40;;;4.40;97.30;;;;;;5111904;28;20627;-77
2022/04/20 00:35:00;;;;;;;8.27;4.40;;;4.40;97.30;;;;;;5111731;28;20435;-76
2022/04/20 00:37:25;;;;;;;5.63;3.83;;;4.30;97.30;;;;;;5112816;28;20419;-78
2022/04/20 00:39:52;;;;;;;6.60;4.27;;;4.20;97.30;;;;;;5111949;28;20174;-77
2022/04/20 00:42:19;;;;;;;8.60;4.80;;;4.20;97.30;;;;;;5111975;28;20566;-77
2022/04/20 00:44:44;;;;;;;6.60;4.47;;;4.10;97.30;;;;;;5111453;28;20443;-77
2022/04/20 00:47:10;;;;;;;11.80;4.33;;;4.10;97.30;;;;;;5111472;28;20638;-77
2022/04/20 00:49:37;;;;;;;9.33;4.17;;;4.00;97.30;;;;;;5112747;28;20247;-76
2022/04/20 00:52:04;;;;;;;8.30;4.47;;;4.00;97.30;;;;;;5111532;28;20448;-78
2022/04/20 00:54:30;;;;;;;5.10;4.00;;;3.90;97.30;;;;;;5111654;28;20431;-76
2022/04/20 00:56:55;;;;;;;6.83;3.90;;;3.90;97.30;;;;;;5111197;28;20408;-76
2022/04/20 00:59:26;;;;;;;6.97;4.40;;;3.80;97.30;;;;;;5111193;28;20203;-77
2022/04/20 01:01:53;;;;;;;5.67;3.93;;;3.70;97.30;;;;;;5111440;28;20185;-77
2022/04/20 01:04:19;;;;;;;6.70;4.53;;;3.60;97.30;;;;;;5110929;28;20438;-76
2022/04/20 01:06:45;;;;;;;7.07;4.33;;;3.60;97.30;;;;;;5112452;28;20418;-77
2022/04/20 01:09:11;;;;;;;7.93;3.80;;;3.50;97.30;;;;;;5110985;28;20472;-76
2022/04/20 01:11:37;;;;;;;7.70;3.67;;;3.50;97.30;;;;;;5110953;28;20639;-76
2022/04/20 01:14:03;;;;;;;5.97;4.53;;;3.50;97.30;;;;;;5111189;28;20193;-77
2022/04/20 01:16:29;;;;;;;9.40;4.63;;;3.40;97.30;;;;;;5111180;28;20443;-76
2022/04/20 01:18:55;;;;;;;7.00;4.50;;;3.40;97.30;;;;;;5111077;28;20462;-77
2022/04/20 01:21:23;;;;;;;6.50;3.90;;;3.40;97.30;;;;;;5110737;28;20566;-78
2022/04/20 01:23:49;;;;;;;9.40;4.50;;;3.30;97.30;;;;;;5110877;28;20670;-76
2022/04/20 01:26:14;;;;;;;9.13;4.07;;;3.30;97.30;;;;;;5110818;28;20451;-77
2022/04/20 01:28:46;;;;;;;8.67;4.57;;;3.20;97.30;;;;;;5110569;28;20908;-76
2022/04/20 01:31:16;;;;;;;8.57;4.77;;;3.20;97.30;;;;;;5111293;28;20191;-77
2022/04/20 01:33:43;;;;;;;7.20;5.50;;;3.20;97.30;;;;;;5110895;28;20407;-77
2022/04/20 01:36:09;;;;;;;7.00;4.57;;;3.20;97.30;;;;;;5110657;28;20936;-76
2022/04/20 01:38:36;;;;;;;8.43;4.00;;;3.10;97.30;;;;;;5110674;28;20408;-77
2022/04/20 01:41:02;;;;;;;8.03;4.43;;;3.10;97.30;;;;;;5110429;28;20451;-76
2022/04/20 01:43:27;;;;;;;8.10;4.20;;;3.10;97.30;;;;;;5111867;28;20408;-77
2022/04/20 01:45:53;;;;;;;7.80;5.63;;;3.00;97.30;;;;;;5109884;28;20313;-76
2022/04/20 01:48:18;;;;;;;11.20;4.50;;;3.00;97.30;;;;;;5110319;28;20195;-76
2022/04/20 01:53:30;;;;;;;5.73;4.03;;;3.00;97.30;;;;;;5111626;28;20181;-77
2022/04/20 01:55:55;;;;;;;6.53;4.60;;;2.90;97.30;;;;;;5111206;28;20551;-77
2022/04/20 01:58:21;;;;;;;5.80;4.50;;;2.90;97.30;;;;;;5110146;28;20483;-77
2022/04/20 02:00:47;;;;;;;6.53;4.30;;;2.80;97.30;;;;;;5110076;28;20310;-77
2022/04/20 02:03:13;;;;;;;6.50;3.47;;;2.80;97.30;;;;;;5111348;28;20568;-76
2022/04/20 02:05:39;;;;;;;7.90;5.03;;;2.80;97.30;;;;;;5110033;28;20202;-76
2022/04/20 02:08:05;;;;;;;8.80;4.43;;;2.70;97.30;;;;;;5109465;28;20494;-77
2022/04/20 02:10:30;;;;;;;7.47;4.83;;;2.70;97.30;;;;;;5109952;28;20420;-76
2022/04/20 02:12:56;;;;;;;9.70;4.17;;;2.70;97.30;;;;;;5109835;28;20177;-76
2022/04/20 02:15:21;;;;;;;7.50;4.10;;;2.60;97.30;;;;;;5110001;28;20204;-76
2022/04/20 02:17:48;;;;;;;5.13;4.07;;;2.60;97.30;;;;;;5109688;28;20178;-76
2022/04/20 02:20:14;;;;;;;6.80;4.60;;;2.60;97.30;;;;;;5109998;28;20212;-76
2022/04/20 02:22:40;;;;;;;8.43;4.33;;;2.60;97.30;;;;;;5111401;28;20439;-76
2022/04/20 02:25:06;;;;;;;5.10;4.20;;;2.60;97.30;;;;;;5110213;28;20663;-77
2022/04/20 02:27:32;;;;;;;7.53;4.40;;;2.50;97.30;;;;;;5109892;28;20835;-76
2022/04/20 02:29:57;;;;;;;7.20;4.27;;;2.50;97.30;;;;;;5111271;28;20404;-76
2022/04/20 02:32:23;;;;;;;9.03;4.90;;;2.50;97.30;;;;;;5109642;28;20222;-77
2022/04/20 02:34:49;;;;;;;6.17;4.30;;;2.50;97.30;;;;;;5110846;28;20235;-76
2022/04/20 02:37:14;;;;;;;7.67;4.60;;;2.40;97.30;;;;;;5109357;28;20268;-76
2022/04/20 02:39:42;;;;;;;11.13;4.63;;;2.40;97.30;;;;;;5109475;28;20498;-76
2022/04/20 02:42:08;;;;;;;5.73;4.50;;;2.40;97.30;;;;;;5109375;28;20281;-77
2022/04/20 02:44:34;;;;;;;6.97;4.47;;;2.40;97.30;;;;;;5110493;28;20431;-77
2022/04/20 02:47:00;;;;;;;19.33;4.97;;;2.30;97.30;;;;;;5109342;28;20412;-76
2022/04/20 02:49:26;;;;;;;8.33;4.40;;;2.30;97.30;;;;;;5109363;28;20584;-76
2022/04/20 02:51:51;;;;;;;6.03;4.33;;;2.30;97.30;;;;;;5110796;28;20253;-76
2022/04/20 02:54:17;;;;;;;8.83;4.93;;;2.20;97.30;;;;;;5109757;28;20199;-76
2022/04/20 02:56:42;;;;;;;10.30;5.50;;;2.20;97.30;;;;;;5110123;28;20173;-77
2022/04/20 02:59:08;;;;;;;7.17;4.70;;;2.20;97.30;;;;;;5109261;28;20696;-76
2022/04/20 03:01:34;;;;;;;10.20;5.37;;;2.20;97.30;;;;;;5109373;28;20186;-76
2022/04/20 03:04:00;;;;;;;7.30;4.07;;;2.20;97.30;;;;;;5109253;28;20197;-76
2022/04/20 03:06:27;;;;;;;8.37;4.57;;;2.20;97.30;;;;;;5109091;28;20216;-76
2022/04/20 03:08:53;;;;;;;6.47;4.30;;;2.20;97.30;;;;;;5110189;28;20256;-76
2022/04/20 03:11:19;;;;;;;8.40;4.80;;;2.20;97.30;;;;;;5109388;28;20927;-76
2022/04/20 03:13:45;;;;;;;5.37;3.60;;;2.10;97.30;;;;;;5108935;28;20446;-77
2022/04/20 03:16:11;;;;;;;8.23;4.73;;;2.00;97.30;;;;;;5109034;28;20925;-77
2022/04/20 03:18:36;;;;;;;7.03;4.40;;;2.00;97.30;;;;;;5109151;28;20411;-77
2022/04/20 03:21:02;;;;;;;7.60;4.87;;;2.00;97.30;;;;;;5109329;28;20233;-77
2022/04/20 03:23:28;;;;;;;7.60;4.40;;;2.00;97.30;;;;;;5109120;28;20272;-77
2022/04/20 03:25:54;;;;;;;6.77;4.40;;;2.00;97.30;;;;;;5109120;28;20205;-78
2022/04/20 03:28:20;;;;;;;7.87;4.40;;;2.00;97.30;;;;;;5109154;28;20455;-76
2022/04/20 03:30:47;;;;;;;9.27;4.27;;;1.90;97.30;;;;;;5109254;28;20173;-77
2022/04/20 03:33:13;;;;;;;8.87;5.40;;;1.90;97.30;;;;;;5108597;28;20515;-77
2022/04/20 03:35:39;;;;;;;9.73;6.00;;;1.90;97.30;;;;;;5108728;28;20515;-76
2022/04/20 03:38:08;;;;;;;8.73;4.60;;;1.90;97.30;;;;;;5108504;28;20531;-76
2022/04/20 03:40:34;;;;;;;5.40;3.97;;;1.90;97.30;;;;;;5108931;28;20427;-77
2022/04/20 03:43:01;;;;;;;8.97;4.63;;;1.90;97.30;;;;;;5108856;28;20424;-77
2022/04/20 03:45:27;;;;;;;6.80;4.77;;;1.90;97.30;;;;;;5108590;28;20447;-76
2022/04/20 03:47:52;;;;;;;9.23;4.93;;;1.90;97.30;;;;;;5107582;28;20467;-77
2022/04/20 03:50:19;;;;;;;8.13;4.83;;;1.80;97.30;;;;;;5096360;28;20201;-77
2022/04/20 03:52:44;;;;;;;9.13;5.40;;;1.90;97.30;;;;;;5097461;28;20178;-77
2022/04/20 03:55:10;;;;;;;9.80;5.10;;;1.80;97.30;;;;;;5097399;28;20517;-78
2022/04/20 03:57:36;;;;;;;9.77;5.60;;;1.80;97.30;;;;;;5105280;28;20683;-77
2022/04/20 04:00:03;;;;;;;9.60;5.57;;;1.80;97.30;;;;;;5098366;28;20190;-76
2022/04/20 04:02:29;;;;;;;7.97;5.50;;;1.80;97.30;;;;;;5102005;28;20181;-77
2022/04/20 04:04:55;;;;;;;8.23;4.50;;;1.80;97.30;;;;;;5101887;28;20440;-77
2022/04/20 04:07:21;;;;;;;8.73;5.67;;;1.80;97.30;;;;;;5101611;28;20171;-77
2022/04/20 04:09:46;;;;;;;7.00;5.33;;;1.80;97.30;;;;;;5103037;28;20554;-77
2022/04/20 04:12:12;;;;;;;7.97;5.63;;;1.80;97.30;;;;;;5103870;28;20186;-77
2022/04/20 04:14:42;;;;;;;7.40;5.00;;;1.80;97.30;;;;;;5100733;28;20561;-76
2022/04/20 04:17:08;;;;;;;6.30;4.33;;;1.80;97.30;;;;;;5101679;28;20170;-78
2022/04/20 04:19:35;;;;;;;10.37;6.10;;;1.80;97.30;;;;;;5101030;28;20454;-78
2022/04/20 04:22:04;;;;;;;7.43;5.27;;;1.80;97.30;;;;;;5109960;28;20423;-76
2022/04/20 04:24:36;;;;;;;7.80;5.70;;;1.80;97.30;;;;;;5102808;28;20441;-77
2022/04/20 04:27:06;;;;;;;13.10;6.00;;;1.80;97.30;;;;;;5102706;28;20408;-76
2022/04/20 04:29:32;;;;;;;12.83;6.27;;;1.90;97.30;;;;;;5099391;28;20543;-78
2022/04/20 04:31:59;;;;;;;10.63;6.20;;;1.90;97.30;;;;;;5102661;28;20411;-77
2022/04/20 04:34:25;;;;;;;11.23;5.30;;;2.00;97.30;;;;;;5104860;28;20431;-77
2022/04/20 04:36:51;;;;;;;11.67;5.93;;;2.00;97.30;;;;;;5104266;28;20438;-77
2022/04/20 04:39:21;;;;;;;9.37;5.50;;;2.00;97.30;;;;;;5103228;28;20179;-76
2022/04/20 04:41:48;;;;;;;11.77;5.73;;;2.10;97.30;;;;;;5097128;28;20419;-76
2022/04/20 04:44:14;;;;;;;9.53;4.90;;;2.10;97.30;;;;;;5112784;28;20536;-77
2022/04/20 04:49:24;;;;;;;9.50;5.53;;;2.20;97.30;;;;;;5111269;28;20446;-78
2022/04/20 04:51:50;;;;;;;7.87;4.93;;;2.20;97.30;;;;;;5110482;28;20407;-77
2022/04/20 04:54:16;;;;;;;8.57;5.30;;;2.20;97.30;;;;;;5112104;28;20182;-78
2022/04/20 04:56:41;;;;;;;8.57;5.53;;;2.20;97.30;;;;;;5110720;28;20408;-77
2022/04/20 04:59:07;;;;;;;12.30;5.83;;;2.20;97.30;;;;;;5110514;28;20185;-77
2022/04/20 05:01:33;;;;;;;10.60;5.93;;;2.30;97.30;;;;;;5110828;28;20184;-77
2022/04/20 05:03:59;;;;;;;7.63;5.37;;;2.30;97.30;;;;;;5112586;28;20186;-77
2022/04/20 05:06:24;;;;;;;7.57;5.83;;;2.30;97.30;;;;;;5112868;28;20476;-78
2022/04/20 05:08:50;;;;;;;8.07;5.67;;;2.40;97.30;;;;;;5111108;28;20251;-77
2022/04/20 05:11:16;;;;;;;10.40;6.47;;;2.40;97.30;;;;;;5111006;28;20640;-77
2022/04/20 05:13:42;;;;;;;12.97;7.10;;;2.50;97.30;;;;;;5111269;28;20451;-77
2022/04/20 05:16:08;;;;;;;15.00;6.90;;;2.60;97.30;;;;;;5110701;28;20177;-77
2022/04/20 05:18:34;;;;;;;11.20;6.30;;;2.70;97.30;;;;;;5111075;28;20182;-77
2022/04/20 05:21:00;;;;;;;7.63;5.80;;;2.80;97.30;;;;;;5110886;28;20989;-77
2022/04/20 05:23:25;;;;;;;11.17;6.20;;;2.90;97.30;;;;;;5112220;28;20535;-77
2022/04/20 05:25:51;;;;;;;10.23;6.27;;;3.00;97.30;;;;;;5110890;28;20194;-77
2022/04/20 05:28:16;;;;;;;10.40;5.97;;;3.10;97.30;;;;;;5111498;28;20198;-77
2022/04/20 05:30:42;;;;;;;9.30;6.00;;;3.20;97.30;;;;;;5110880;28;20182;-77
2022/04/20 05:33:08;;;;;;;11.03;6.27;;;3.20;97.30;;;;;;5111918;28;20170;-76
2022/04/20 05:35:33;;;;;;;16.10;6.87;;;3.30;97.30;;;;;;5110642;28;20197;-77
2022/04/20 05:43:27;;;;;;;11.87;7.30;;;3.70;97.30;;;;;;5112384;28;20452;-77
2022/04/20 05:45:53;;;;;;;28.03;14.20;;;3.90;97.30;;;;;;5110857;28;20436;-77
2022/04/20 05:48:18;;;;;;;20.90;11.00;;;4.00;97.30;;;;;;5110528;28;20586;-76
2022/04/20 05:50:44;;;;;;;17.20;9.13;;;4.10;97.30;;;;;;5110662;28;20257;-77
2022/04/20 05:53:10;;;;;;;13.50;7.60;;;4.20;97.30;;;;;;5110571;28;20174;-77
2022/04/20 05:55:35;;;;;;;14.30;7.77;;;4.30;97.30;;;;;;5110522;28;20198;-77
2022/04/20 05:58:01;;;;;;;17.20;7.40;;;4.40;97.30;;;;;;5110286;28;20174;-77
2022/04/20 06:00:27;;;;;;;15.13;8.23;;;4.50;97.30;;;;;;5110159;28;20411;-77
2022/04/20 06:02:54;;;;;;;12.33;8.60;;;4.60;97.30;;;;;;5110152;28;20413;-77
2022/04/20 06:05:20;;;;;;;11.77;7.03;;;4.80;97.30;;;;;;5110178;28;20204;-77
2022/04/20 06:07:47;;;;;;;17.83;7.83;;;4.90;97.30;;;;;;5109601;28;20483;-77
2022/04/20 06:10:13;;;;;;;16.47;8.93;;;5.10;97.30;;;;;;5110188;28;20408;-77
2022/04/20 06:12:38;;;;;;;13.70;8.70;;;5.20;97.30;;;;;;5111239;28;20886;-77
2022/04/20 06:15:06;;;;;;;13.60;7.80;;;5.30;97.30;;;;;;5109543;28;20217;-78
2022/04/20 06:17:32;;;;;;;12.97;7.90;;;5.30;97.30;;;;;;5109324;28;20651;-77
2022/04/20 06:19:57;;;;;;;16.63;8.40;;;5.40;97.30;;;;;;5109779;28;20443;-78
2022/04/20 06:22:23;;;;;;;17.10;8.00;;;5.50;97.30;;;;;;5109850;28;20412;-78
2022/04/20 06:24:48;;;;;;;19.30;8.10;;;5.60;97.30;;;;;;5109432;28;20250;-78
2022/04/20 06:27:15;;;;;;;12.87;6.97;;;5.70;97.30;;;;;;5109761;28;20177;-79
2022/04/20 06:29:41;;;;;;;12.00;7.13;;;5.90;97.30;;;;;;5109764;28;20197;-78
2022/04/20 06:32:07;;;;;;;19.97;7.53;;;6.00;97.30;;;;;;5109530;28;20973;-78
2022/04/20 06:34:32;;;;;;;14.23;7.10;;;6.00;97.30;;;;;;5109725;28;20201;-79
2022/04/20 06:36:58;;;;;;;13.17;6.93;;;6.10;97.30;;;;;;5109313;28;20411;-78
2022/04/20 06:39:24;;;;;;;9.63;5.90;;;6.20;97.30;;;;;;5109728;28;20173;-78
2022/04/20 06:41:50;;;;;;;7.10;5.60;;;6.40;97.30;;;;;;5109386;28;20412;-78
2022/04/20 06:44:16;;;;;;;13.90;6.90;;;6.50;97.30;;;;;;5109287;28;20204;-78
2022/04/20 06:46:41;;;;;;;12.37;5.90;;;6.50;97.30;;;;;;5109286;28;20567;-78
2022/04/20 06:49:07;;;;;;;11.03;5.77;;;6.60;97.30;;;;;;5109756;28;20286;-78
2022/04/20 06:58:31;;;;;;;8.90;5.63;;;6.60;97.30;;;;;;5109496;28;20186;-78
2022/04/20 06:59:46;;;;;;;16.50;6.93;;;6.60;97.30;;;;;;5110592;28;20418;-79
2022/04/20 07:02:12;;;;;;;12.90;6.80;;;6.70;97.30;;;;;;5108856;28;20416;-78
2022/04/20 07:04:37;;;;;;;11.90;6.03;;;6.80;97.30;;;;;;5108954;28;20349;-78
2022/04/20 07:07:03;;;;;;;11.13;6.50;;;6.80;97.30;;;;;;5109154;28;20190;-78
2022/04/20 07:09:29;;;;;;;14.20;5.73;;;6.90;97.30;;;;;;5108973;28;20233;-78
2022/04/20 07:11:54;;;;;;;10.63;5.67;;;6.90;97.30;;;;;;5110507;28;20169;-79
2022/04/20 07:14:20;;;;;;;14.70;5.90;;;6.90;97.30;;;;;;5109054;28;20428;-78
2022/04/20 07:16:45;;;;;;;11.83;5.97;;;7.00;97.30;;;;;;5109195;28;20174;-79
2022/04/20 07:19:11;;;;;;;13.53;5.90;;;7.00;97.30;;;;;;5108965;28;20712;-78
2022/04/20 07:21:37;;;;;;;7.30;5.30;;;7.00;97.30;;;;;;5108961;28;20173;-79
2022/04/20 07:24:02;;;;;;;8.73;5.40;;;7.10;97.30;;;;;;5109024;28;20288;-78
2022/04/20 07:26:28;;;;;;;17.60;5.63;;;7.10;97.30;;;;;;5108922;28;20239;-78
2022/04/20 07:28:55;;;;;;;10.87;5.63;;;7.10;97.30;;;;;;5109099;28;20286;-78
2022/04/20 07:31:20;;;;;;;12.00;5.50;;;7.20;97.30;;;;;;5112350;28;20525;-78
2022/04/20 07:33:46;;;;;;;8.63;4.97;;;7.20;97.30;;;;;;5113200;28;20476;-78
2022/04/20 07:36:11;;;;;;;9.87;5.10;;;7.30;97.30;;;;;;5113219;28;20181;-78
2022/04/20 07:38:38;;;;;;;11.23;5.40;;;7.30;97.30;;;;;;5113148;28;20272;-78
2022/04/20 07:41:04;;;;;;;14.73;5.43;;;7.40;97.30;;;;;;5113035;28;20174;-79
2022/04/20 07:43:30;;;;;;;9.73;4.70;;;7.50;97.30;;;;;;5114111;28;20414;-78
2022/04/20 07:45:55;;;;;;;9.73;6.60;;;7.60;97.30;;;;;;5112481;28;20442;-79
2022/04/20 07:48:21;;;;;;;12.17;5.70;;;7.60;96.90;;;;;;5112630;28;20554;-79
2022/04/20 07:50:47;;;;;;;8.00;5.40;;;7.70;97.30;;;;;;5112635;28;20640;-78
2022/04/20 07:53:12;;;;;;;8.90;5.47;;;7.70;97.30;;;;;;5112658;28;20178;-78
2022/04/20 07:55:38;;;;;;;8.27;5.07;;;7.80;97.20;;;;;;5112474;28;20194;-79
2022/04/20 07:58:04;;;;;;;10.20;4.70;;;7.90;97.20;;;;;;5112618;28;20174;-79
2022/04/20 08:00:30;;;;;;;8.37;5.10;;;8.00;96.80;;;;;;5112438;28;20964;-78
2022/04/20 08:03:12;;;;;;;9.40;5.70;;;8.10;96.40;;;;;;5112505;28;20232;-78
2022/04/20 08:05:38;;;;;;;8.87;4.87;;;8.10;96.20;;;;;;5112382;28;20822;-78
2022/04/20 08:08:06;;;;;;;7.70;4.77;;;8.20;96.20;;;;;;5112146;28;20490;-78
2022/04/20 08:10:31;;;;;;;8.00;4.97;;;8.20;95.80;;;;;;5113630;28;20924;-79
2022/04/20 08:12:57;;;;;;;7.70;5.33;;;8.30;95.40;;;;;;5112118;28;20498;-78
2022/04/20 08:15:22;;;;;;;10.13;6.07;;;8.20;94.90;;;;;;5112214;28;20223;-80
2022/04/20 08:17:48;;;;;;;14.30;5.60;;;8.30;94.70;;;;;;5112365;28;20465;-78
2022/04/20 08:20:14;;;;;;;10.57;5.87;;;8.30;94.60;;;;;;5113858;28;20177;-79
2022/04/20 08:22:41;;;;;;;8.10;5.43;;;8.40;94.70;;;;;;5112309;28;20174;-79
2022/04/20 08:25:08;;;;;;;13.00;6.17;;;8.50;95.10;;;;;;5111740;28;20190;-79
2022/04/20 08:27:34;;;;;;;10.07;5.80;;;8.60;95.10;;;;;;5113133;28;20953;-79
2022/04/20 08:29:59;;;;;;;11.60;6.10;;;8.80;94.70;;;;;;5112154;28;20488;-78
2022/04/20 08:32:25;;;;;;;9.07;5.27;;;8.90;94.50;;;;;;5111877;28;20178;-77
2022/04/20 08:34:51;;;;;;;11.63;5.00;;;8.80;93.70;;;;;;5112133;28;20193;-77
2022/04/20 08:37:16;;;;;;;8.07;5.67;;;8.90;93.30;;;;;;5111888;28;20172;-78
2022/04/20 08:39:42;;;;;;;10.50;5.87;;;9.00;93.00;;;;;;5113051;28;20200;-77
2022/04/20 08:42:11;;;;;;;9.27;4.90;;;9.10;93.10;;;;;;5111080;28;20424;-77
2022/04/20 08:44:44;;;;;;;10.93;5.90;;;9.20;92.90;;;;;;5111660;28;20807;-77
2022/04/20 08:47:14;;;;;;;9.80;4.60;;;9.20;92.50;;;;;;5111652;28;20415;-77
2022/04/20 08:49:45;;;;;;;7.93;5.03;;;9.40;92.10;;;;;;5111843;28;20497;-77
2022/04/20 08:54:58;;;;;;;8.07;5.17;;;9.60;92.00;;;;;;5112983;28;20878;-77
2022/04/20 08:57:25;;;;;;;8.30;5.23;;;9.70;91.80;;;;;;5111268;28;20777;-78
2022/04/20 08:59:52;;;;;;;10.93;5.70;;;9.70;91.90;;;;;;5111503;28;20411;-77
2022/04/20 09:02:19;;;;;;;22.30;6.73;;;9.70;91.90;;;;;;5111075;28;20427;-78
2022/04/20 09:04:45;;;;;;;7.13;5.00;;;9.90;92.50;;;;;;5111181;28;21019;-78
2022/04/20 09:07:14;;;;;;;8.63;5.07;;;10.00;91.80;;;;;;5111123;28;20423;-77
2022/04/20 09:09:39;;;;;;;11.80;5.30;;;10.00;91.30;;;;;;5112800;28;20490;-78
2022/04/20 09:12:20;;;;;;;11.23;6.10;;;10.10;91.90;;;;;;5111122;28;21031;-78
2022/04/20 09:14:50;;;;;;;9.30;4.90;;;10.20;92.60;;;;;;5111115;28;20198;-78
2022/04/20 09:17:18;;;;;;;7.90;4.80;;;10.30;92.00;;;;;;5110785;28;20419;-78
2022/04/20 09:19:53;;;;;;;12.50;5.50;;;10.40;91.40;;;;;;5111371;28;20765;-78
2022/04/20 09:22:25;;;;;;;9.77;5.23;;;10.40;92.10;;;;;;5111072;28;20413;-78
2022/04/20 09:25:08;;;;;;;12.40;5.40;;;10.60;92.20;;;;;;5110910;28;20431;-77
2022/04/20 09:27:35;;;;;;;8.63;5.23;;;10.60;90.90;;;;;;5110882;28;20526;-80
2022/04/20 09:30:02;;;;;;;8.80;5.37;;;10.50;91.20;;;;;;5110924;28;20423;-78
2022/04/20 09:32:37;;;;;;;7.10;4.80;;;10.40;91.20;;;;;;5110650;28;20750;-78
2022/04/20 09:35:12;;;;;;;11.53;6.63;;;10.40;92.20;;;;;;5110739;28;20435;-78
2022/04/20 09:37:38;;;;;;;14.83;6.87;;;10.60;92.50;;;;;;5111913;28;20403;-78
2022/04/20 09:40:06;;;;;;;8.40;5.37;;;10.70;92.00;;;;;;5110547;28;20932;-78
2022/04/20 09:42:34;;;;;;;8.97;5.00;;;10.90;91.90;;;;;;5110658;28;20415;-80
2022/04/20 09:45:06;;;;;;;7.93;5.60;;;11.00;90.70;;;;;;5112999;28;20514;-80
2022/04/20 09:50:30;;;;;;;8.93;5.63;;;11.00;91.80;;;;;;5114323;28;20778;-80
2022/04/20 09:52:58;;;;;;;7.93;4.70;;;11.00;91.20;;;;;;5111631;28;20464;-81
2022/04/20 09:55:31;;;;;;;10.53;5.17;;;11.00;90.90;;;;;;5112528;28;20963;-81
2022/04/20 09:58:18;;;;;;;10.33;5.50;;;11.00;91.90;;;;;;5112353;28;20452;-81
2022/04/20 10:00:53;;;;;;;16.50;5.90;;;10.90;91.80;;;;;;5112754;28;20408;-81
2022/04/20 10:03:33;;;;;;;9.40;5.77;;;10.90;92.20;;;;;;5112043;28;20410;-80
2022/04/20 10:05:59;;;;;;;7.40;4.93;;;10.80;92.10;;;;;;5111902;28;20434;-80
2022/04/20 10:08:25;;;;;;;10.30;5.43;;;10.90;92.90;;;;;;5111923;28;21012;-80
2022/04/20 10:10:55;;;;;;;8.17;6.03;;;11.00;91.80;;;;;;5112777;28;21019;-80
2022/04/20 10:13:22;;;;;;;12.47;5.57;;;11.20;92.60;;;;;;5112390;28;20415;-80
2022/04/20 10:16:08;;;;;;;14.17;5.90;;;11.40;92.50;;;;;;5112460;28;20436;-80
2022/04/20 10:18:39;;;;;;;11.10;6.07;;;11.50;91.80;;;;;;5111897;28;20435;-81
2022/04/20 10:21:07;;;;;;;9.80;5.70;;;11.50;91.60;;;;;;5113008;28;20428;-81
2022/04/20 10:23:34;;;;;;;11.10;5.27;;;11.50;91.50;;;;;;5112572;28;20420;-81
2022/04/20 10:26:01;;;;;;;8.30;5.37;;;11.50;91.80;;;;;;5112522;28;20492;-81
2022/04/20 10:28:54;;;;;;;8.97;5.60;;;11.60;91.70;;;;;;5111936;28;20455;-80
2022/04/20 10:31:44;;;;;;;14.57;6.00;;;11.70;91.30;;;;;;5112365;28;20462;-81
2022/04/20 10:34:18;;;;;;;11.27;5.87;;;11.80;91.30;;;;;;5111824;28;20476;-80
2022/04/20 10:37:01;;;;;;;8.37;5.87;;;11.70;91.20;;;;;;5112079;28;20423;-81
2022/04/20 10:39:29;;;;;;;10.53;6.10;;;11.70;91.30;;;;;;5112172;28;20929;-81
2022/04/20 10:42:19;;;;;;;9.63;5.50;;;11.60;91.50;;;;;;5111972;28;20846;-81
2022/04/20 10:45:06;;;;;;;10.67;5.77;;;11.60;92.30;;;;;;5111425;28;20432;-81
2022/04/20 10:47:55;;;;;;;11.23;6.50;;;11.60;91.80;;;;;;5111641;28;20438;-80
2022/04/20 10:50:29;;;;;;;8.70;5.70;;;11.60;92.10;;;;;;5111612;28;20430;-80
2022/04/20 10:53:03;;;;;;;14.00;6.53;;;11.60;91.70;;;;;;5111494;28;20426;-81
2022/04/20 10:55:31;;;;;;;11.30;6.20;;;11.60;91.90;;;;;;5111538;28;20443;-80
2022/04/20 10:58:02;;;;;;;8.47;6.43;;;11.70;91.80;;;;;;5111562;28;20503;-81
2022/04/20 11:00:34;;;;;;;10.83;6.20;;;11.70;91.40;;;;;;5111863;28;20451;-80
2022/04/20 11:03:10;;;;;;;16.37;6.93;;;11.80;92.30;;;;;;5111818;28;20414;-81
2022/04/20 11:05:55;;;;;;;13.73;6.40;;;12.00;91.40;;;;;;5112126;28;20467;-81
2022/04/20 11:08:24;;;;;;;11.40;6.50;;;12.00;91.10;;;;;;5111667;28;20482;-80
2022/04/20 11:19:54;;;;;;;9.13;5.67;;;12.10;90.40;;;;;;5113115;28;20404;-80
2022/04/20 11:22:21;;;;;;;10.40;6.60;;;12.00;90.80;;;;;;5111777;28;20423;-80
2022/04/20 11:24:47;;;;;;;11.63;6.30;;;12.00;91.00;;;;;;5113117;28;20437;-81
2022/04/20 11:27:13;;;;;;;9.23;6.20;;;11.90;91.10;;;;;;5111921;28;20419;-80
2022/04/20 11:29:43;;;;;;;10.67;6.00;;;11.80;91.00;;;;;;5111441;28;20459;-81
2022/04/20 11:32:10;;;;;;;11.07;6.13;;;11.60;91.40;;;;;;5111793;28;20408;-80
2022/04/20 11:34:39;;;;;;;11.57;6.97;;;11.40;91.90;;;;;;5111982;28;20882;-81
2022/04/20 11:37:06;;;;;;;15.73;8.53;;;11.40;92.70;;;;;;5111442;28;20423;-81
2022/04/20 11:39:33;;;;;;;20.33;6.63;;;11.30;92.70;;;;;;5111947;28;20418;-80
2022/04/20 11:42:03;;;;;;;7.87;5.93;;;11.20;92.80;;;;;;5111658;28;20420;-80
2022/04/20 11:44:31;;;;;;;13.50;7.20;;;11.20;93.50;;;;;;5111476;28;20472;-80
2022/04/20 11:47:01;;;;;;;10.70;6.23;;;11.20;93.90;;;;;;5110890;28;20469;-81
2022/04/20 11:49:41;;;;;;;8.80;6.20;;;11.10;94.20;;;;;;5111042;28;20459;-81
2022/04/20 11:52:14;;;;;;;10.30;6.30;;;11.10;94.50;;;;;;5111283;28;20416;-81
2022/04/20 11:54:41;;;;;;;10.87;6.50;;;11.10;95.10;;;;;;5095172;28;20941;-80
2022/04/20 11:57:08;;;;;;;13.40;6.77;;;11.10;95.70;;;;;;5111217;28;20781;-81
2022/04/20 11:59:40;;;;;;;12.57;6.93;;;11.00;96.00;;;;;;5111560;28;20693;-81
2022/04/20 12:02:06;;;;;;;11.43;7.20;;;11.00;95.90;;;;;;5111796;28;20712;-81
2022/04/20 12:04:32;;;;;;;12.13;6.83;;;10.90;96.80;;;;;;5111026;28;20791;-81
2022/04/20 12:07:01;;;;;;;11.60;7.07;;;10.90;97.30;;;;;;5110823;28;20178;-81
2022/04/20 12:09:29;;;;;;;11.00;7.70;;;10.80;97.30;;;;;;5111141;28;20644;-81
2022/04/20 12:11:57;;;;;;;16.37;9.27;;;10.70;97.30;;;;;;5112708;28;20414;-81
2022/04/20 12:14:24;;;;;;;12.37;6.97;;;10.70;97.30;;;;;;5110872;28;20435;-82
2022/04/20 12:16:52;;;;;;;11.73;7.37;;;10.70;97.30;;;;;;5113955;28;20415;-80
2022/04/20 12:19:19;;;;;;;12.07;7.17;;;10.60;97.30;;;;;;5115211;28;20426;-80
2022/04/20 12:21:46;;;;;;;12.10;8.07;;;10.50;97.30;;;;;;5116224;28;20455;-82
2022/04/20 12:24:28;;;;;;;12.23;7.57;;;10.50;97.30;;;;;;5114051;28;20479;-80
2022/04/20 12:26:55;;;;;;;11.67;7.53;;;10.50;97.30;;;;;;5116687;27;20487;-81
2022/04/20 12:29:22;;;;;;;11.53;7.30;;;10.50;97.30;;;;;;5114472;28;20463;-80
2022/04/20 12:31:50;;;;;;;13.60;7.10;;;10.50;97.30;;;;;;5115973;28;20798;-81
2022/04/20 12:34:17;;;;;;;12.73;7.33;;;10.60;97.30;;;;;;5115655;28;20803;-81
2022/04/20 12:36:59;;;;;;;13.77;7.93;;;10.70;97.30;;;;;;5114782;28;20514;-81
2022/04/20 12:39:34;;;;;;;14.90;7.03;;;10.70;97.30;;;;;;5114334;28;20427;-81
2022/04/20 12:42:10;;;;;;;10.03;6.80;;;10.90;97.30;;;;;;5115896;28;20411;-80
2022/04/20 12:44:52;;;;;;;11.00;6.93;;;11.20;97.30;;;;;;5114162;28;20495;-81
2022/04/20 12:47:21;;;;;;;11.10;7.40;;;11.50;97.30;;;;;;5114482;28;20419;-80
2022/04/20 12:49:53;;;;;;;13.80;7.33;;;11.80;97.30;;;;;;5114117;28;20493;-81
2022/04/20 12:52:27;;;;;;;8.90;5.70;;;11.90;96.30;;;;;;5113831;28;20411;-80
2022/04/20 12:54:57;;;;;;;9.77;5.60;;;12.00;95.40;;;;;;5113941;28;20511;-81
2022/04/20 13:03:00;;;;;;;8.60;5.53;;;12.00;93.30;;;;;;5115539;28;20387;-81
2022/04/20 13:05:25;;;;;;;8.10;5.87;;;12.00;93.30;;;;;;5114332;28;20944;-81
2022/04/20 13:07:51;;;;;;;7.87;5.00;;;12.00;94.00;;;;;;5113795;28;20463;-81
2022/04/20 13:10:17;;;;;;;11.23;5.50;;;12.10;93.40;;;;;;5113580;28;20162;-81
2022/04/20 13:12:50;;;;;;;9.90;5.47;;;12.20;92.20;;;;;;5114140;28;20179;-81
2022/04/20 13:15:17;;;;;;;10.20;5.70;;;12.40;92.70;;;;;;5113543;28;20432;-81
2022/04/20 13:17:42;;;;;;;12.47;5.60;;;12.70;92.50;;;;;;5113924;28;20404;-81
2022/04/20 13:20:08;;;;;;;7.93;4.90;;;12.80;92.10;;;;;;5113381;28;20423;-81
2022/04/20 13:22:34;;;;;;;10.30;6.13;;;13.00;91.80;;;;;;5113442;28;20174;-81
2022/04/20 13:27:56;;;;;;;8.80;5.43;;;13.10;90.50;;;;;;5115374;28;20222;-81
2022/04/20 13:30:27;;;;;;;16.37;6.30;;;13.00;90.80;;;;;;5113514;28;20419;-80